sensor_id;sensor_type;location;lat;lon;timestamp;P1;durP1;ratioP1;P2;durP2;ratioP2
60312;SDS011;46158;52.850;6.970;2023-08-31T00:02:06;5.03;;;2.22;;
60312;SDS011;46158;52.850;6.970;2023-08-31T00:04:31;5.93;;;2.33;;
60312;SDS011;46158;52.850;6.970;2023-08-31T00:06:58;7.50;;;2.38;;
60312;SDS011;46158;52.850;6.970;2023-08-31T00:09:24;7.25;;;2.50;;
60312;SDS011;46158;52.850;6.970;2023-08-31T00:11:50;6.07;;;2.30;;
60312;SDS011;46158;52.850;6.970;2023-08-31T00:14:16;6.50;;;2.33;;
60312;SDS011;46158;52.850;6.970;2023-08-31T00:16:42;7.43;;;2.20;;
60312;SDS011;46158;52.850;6.970;2023-08-31T00:19:10;6.70;;;2.05;;
60312;SDS011;46158;52.850;6.970;2023-08-31T00:21:37;5.57;;;2.10;;
60312;SDS011;46158;52.850;6.970;2023-08-31T00:24:03;7.82;;;2.20;;
60312;SDS011;46158;52.850;6.970;2023-08-31T00:26:28;6.07;;;2.05;;
60312;SDS011;46158;52.850;6.970;2023-08-31T00:28:56;6.25;;;2.30;;
60312;SDS011;46158;52.850;6.970;2023-08-31T00:31:22;7.00;;;2.45;;
60312;SDS011;46158;52.850;6.970;2023-08-31T00:33:48;5.72;;;2.10;;
60312;SDS011;46158;52.850;6.970;2023-08-31T00:36:14;6.30;;;2.30;;
60312;SDS011;46158;52.850;6.970;2023-08-31T00:38:40;7.00;;;2.58;;
60312;SDS011;46158;52.850;6.970;2023-08-31T00:41:05;6.85;;;2.30;;
60312;SDS011;46158;52.850;6.970;2023-08-31T00:43:31;6.80;;;2.17;;
60312;SDS011;46158;52.850;6.970;2023-08-31T00:45:57;7.60;;;2.20;;
60312;SDS011;46158;52.850;6.970;2023-08-31T00:48:23;8.27;;;2.47;;
60312;SDS011;46158;52.850;6.970;2023-08-31T00:50:49;4.85;;;2.13;;
60312;SDS011;46158;52.850;6.970;2023-08-31T00:53:16;8.60;;;2.22;;
60312;SDS011;46158;52.850;6.970;2023-08-31T00:55:43;9.82;;;2.22;;
60312;SDS011;46158;52.850;6.970;2023-08-31T00:58:10;3.75;;;2.00;;
60312;SDS011;46158;52.850;6.970;2023-08-31T01:12:09;7.00;;;2.30;;
60312;SDS011;46158;52.850;6.970;2023-08-31T01:14:44;6.53;;;2.17;;
60312;SDS011;46158;52.850;6.970;2023-08-31T01:17:15;6.95;;;2.30;;
60312;SDS011;46158;52.850;6.970;2023-08-31T01:19:44;7.75;;;2.10;;
60312;SDS011;46158;52.850;6.970;2023-08-31T01:22:39;9.15;;;2.30;;
60312;SDS011;46158;52.850;6.970;2023-08-31T01:25:08;5.90;;;2.03;;
60312;SDS011;46158;52.850;6.970;2023-08-31T01:27:34;7.10;;;2.40;;
60312;SDS011;46158;52.850;6.970;2023-08-31T01:30:02;5.30;;;1.92;;
60312;SDS011;46158;52.850;6.970;2023-08-31T01:32:29;6.10;;;2.00;;
60312;SDS011;46158;52.850;6.970;2023-08-31T01:34:55;8.35;;;2.45;;
60312;SDS011;46158;52.850;6.970;2023-08-31T01:40:14;5.00;;;1.98;;
60312;SDS011;46158;52.850;6.970;2023-08-31T01:42:49;9.23;;;2.20;;
60312;SDS011;46158;52.850;6.970;2023-08-31T01:45:21;7.32;;;2.17;;
60312;SDS011;46158;52.850;6.970;2023-08-31T01:47:48;3.42;;;1.90;;
60312;SDS011;46158;52.850;6.970;2023-08-31T01:50:14;8.05;;;2.10;;
60312;SDS011;46158;52.850;6.970;2023-08-31T01:52:40;6.07;;;2.13;;
60312;SDS011;46158;52.850;6.970;2023-08-31T01:55:05;8.20;;;2.17;;
60312;SDS011;46158;52.850;6.970;2023-08-31T01:57:32;7.70;;;2.10;;
60312;SDS011;46158;52.850;6.970;2023-08-31T01:59:58;6.68;;;2.20;;
60312;SDS011;46158;52.850;6.970;2023-08-31T02:02:24;6.95;;;2.10;;
60312;SDS011;46158;52.850;6.970;2023-08-31T02:04:50;5.55;;;2.10;;
60312;SDS011;46158;52.850;6.970;2023-08-31T02:07:16;7.85;;;2.10;;
60312;SDS011;46158;52.850;6.970;2023-08-31T02:09:42;8.70;;;2.15;;
60312;SDS011;46158;52.850;6.970;2023-08-31T02:12:08;5.47;;;2.22;;
60312;SDS011;46158;52.850;6.970;2023-08-31T02:14:34;6.07;;;2.20;;
60312;SDS011;46158;52.850;6.970;2023-08-31T02:17:01;3.47;;;2.00;;
60312;SDS011;46158;52.850;6.970;2023-08-31T02:19:26;6.32;;;2.20;;
60312;SDS011;46158;52.850;6.970;2023-08-31T02:21:52;5.68;;;2.13;;
60312;SDS011;46158;52.850;6.970;2023-08-31T02:24:18;2.00;;;1.80;;
60312;SDS011;46158;52.850;6.970;2023-08-31T02:26:43;5.05;;;2.08;;
60312;SDS011;46158;52.850;6.970;2023-08-31T02:29:09;4.20;;;2.13;;
60312;SDS011;46158;52.850;6.970;2023-08-31T02:31:35;3.17;;;2.00;;
60312;SDS011;46158;52.850;6.970;2023-08-31T02:34:02;6.25;;;2.13;;
60312;SDS011;46158;52.850;6.970;2023-08-31T02:36:29;4.75;;;2.00;;
60312;SDS011;46158;52.850;6.970;2023-08-31T02:38:55;5.55;;;2.00;;
60312;SDS011;46158;52.850;6.970;2023-08-31T02:41:21;6.85;;;2.00;;
60312;SDS011;46158;52.850;6.970;2023-08-31T02:43:49;4.82;;;1.90;;
60312;SDS011;46158;52.850;6.970;2023-08-31T02:46:15;9.75;;;2.20;;
60312;SDS011;46158;52.850;6.970;2023-08-31T02:48:41;4.38;;;2.00;;
60312;SDS011;46158;52.850;6.970;2023-08-31T02:51:07;5.85;;;2.10;;
60312;SDS011;46158;52.850;6.970;2023-08-31T02:53:32;16.77;;;2.45;;
60312;SDS011;46158;52.850;6.970;2023-08-31T02:55:58;5.90;;;1.98;;
60312;SDS011;46158;52.850;6.970;2023-08-31T02:58:24;10.85;;;2.20;;
60312;SDS011;46158;52.850;6.970;2023-08-31T03:00:50;4.63;;;2.00;;
60312;SDS011;46158;52.850;6.970;2023-08-31T03:03:15;4.95;;;2.00;;
60312;SDS011;46158;52.850;6.970;2023-08-31T03:05:41;5.30;;;1.90;;
60312;SDS011;46158;52.850;6.970;2023-08-31T03:08:07;3.35;;;1.70;;
60312;SDS011;46158;52.850;6.970;2023-08-31T03:10:33;4.70;;;1.90;;
60312;SDS011;46158;52.850;6.970;2023-08-31T03:12:59;9.18;;;2.05;;
60312;SDS011;46158;52.850;6.970;2023-08-31T03:15:24;4.07;;;2.08;;
60312;SDS011;46158;52.850;6.970;2023-08-31T03:17:50;5.28;;;2.10;;
60312;SDS011;46158;52.850;6.970;2023-08-31T03:20:15;6.18;;;1.90;;
60312;SDS011;46158;52.850;6.970;2023-08-31T03:22:41;6.75;;;2.20;;
60312;SDS011;46158;52.850;6.970;2023-08-31T03:25:07;7.72;;;2.20;;
60312;SDS011;46158;52.850;6.970;2023-08-31T03:27:33;7.05;;;2.00;;
60312;SDS011;46158;52.850;6.970;2023-08-31T03:29:59;6.50;;;2.30;;
60312;SDS011;46158;52.850;6.970;2023-08-31T03:32:24;4.00;;;1.90;;
60312;SDS011;46158;52.850;6.970;2023-08-31T03:34:50;4.00;;;1.90;;
60312;SDS011;46158;52.850;6.970;2023-08-31T03:37:15;6.90;;;2.13;;
60312;SDS011;46158;52.850;6.970;2023-08-31T03:39:41;5.95;;;2.30;;
60312;SDS011;46158;52.850;6.970;2023-08-31T03:42:08;6.55;;;2.10;;
60312;SDS011;46158;52.850;6.970;2023-08-31T03:44:34;4.50;;;2.00;;
60312;SDS011;46158;52.850;6.970;2023-08-31T03:47:02;6.72;;;2.40;;
60312;SDS011;46158;52.850;6.970;2023-08-31T03:49:27;5.82;;;2.10;;
60312;SDS011;46158;52.850;6.970;2023-08-31T03:51:53;4.20;;;2.00;;
60312;SDS011;46158;52.850;6.970;2023-08-31T03:54:19;5.30;;;2.30;;
60312;SDS011;46158;52.850;6.970;2023-08-31T03:56:45;6.15;;;1.98;;
60312;SDS011;46158;52.850;6.970;2023-08-31T03:59:12;7.75;;;2.10;;
60312;SDS011;46158;52.850;6.970;2023-08-31T04:01:37;5.07;;;1.98;;
60312;SDS011;46158;52.850;6.970;2023-08-31T04:04:03;6.13;;;2.10;;
60312;SDS011;46158;52.850;6.970;2023-08-31T04:06:29;8.43;;;2.35;;
60312;SDS011;46158;52.850;6.970;2023-08-31T04:08:55;5.18;;;2.00;;
60312;SDS011;46158;52.850;6.970;2023-08-31T04:11:20;10.27;;;2.45;;
60312;SDS011;46158;52.850;6.970;2023-08-31T04:13:46;6.70;;;2.10;;
60312;SDS011;46158;52.850;6.970;2023-08-31T04:16:12;6.97;;;2.03;;
60312;SDS011;46158;52.850;6.970;2023-08-31T04:18:38;6.70;;;2.10;;
60312;SDS011;46158;52.850;6.970;2023-08-31T04:21:03;6.50;;;2.05;;
60312;SDS011;46158;52.850;6.970;2023-08-31T04:23:30;4.95;;;1.90;;
60312;SDS011;46158;52.850;6.970;2023-08-31T04:25:56;6.93;;;2.08;;
60312;SDS011;46158;52.850;6.970;2023-08-31T04:28:23;4.60;;;2.08;;
60312;SDS011;46158;52.850;6.970;2023-08-31T04:30:49;4.03;;;2.15;;
60312;SDS011;46158;52.850;6.970;2023-08-31T04:33:15;7.20;;;2.17;;
60312;SDS011;46158;52.850;6.970;2023-08-31T04:35:41;5.20;;;2.00;;
60312;SDS011;46158;52.850;6.970;2023-08-31T04:38:07;9.05;;;2.05;;
60312;SDS011;46158;52.850;6.970;2023-08-31T04:40:32;5.47;;;1.98;;
60312;SDS011;46158;52.850;6.970;2023-08-31T04:42:58;9.07;;;2.20;;
60312;SDS011;46158;52.850;6.970;2023-08-31T04:45:24;7.22;;;2.10;;
60312;SDS011;46158;52.850;6.970;2023-08-31T04:47:50;5.60;;;2.00;;
60312;SDS011;46158;52.850;6.970;2023-08-31T04:50:16;6.22;;;2.10;;
60312;SDS011;46158;52.850;6.970;2023-08-31T04:52:42;4.53;;;2.20;;
60312;SDS011;46158;52.850;6.970;2023-08-31T04:55:08;3.70;;;2.22;;
60312;SDS011;46158;52.850;6.970;2023-08-31T04:57:34;5.70;;;2.00;;
60312;SDS011;46158;52.850;6.970;2023-08-31T04:59:59;7.20;;;2.30;;
60312;SDS011;46158;52.850;6.970;2023-08-31T05:02:25;4.28;;;2.10;;
60312;SDS011;46158;52.850;6.970;2023-08-31T05:04:52;5.55;;;2.10;;
60312;SDS011;46158;52.850;6.970;2023-08-31T05:07:18;4.70;;;1.90;;
60312;SDS011;46158;52.850;6.970;2023-08-31T05:09:43;4.88;;;1.90;;
60312;SDS011;46158;52.850;6.970;2023-08-31T05:12:09;5.30;;;1.98;;
60312;SDS011;46158;52.850;6.970;2023-08-31T05:14:35;5.38;;;2.00;;
60312;SDS011;46158;52.850;6.970;2023-08-31T05:17:03;4.13;;;2.00;;
60312;SDS011;46158;52.850;6.970;2023-08-31T05:19:29;4.53;;;2.08;;
60312;SDS011;46158;52.850;6.970;2023-08-31T05:21:55;5.70;;;1.90;;
60312;SDS011;46158;52.850;6.970;2023-08-31T05:24:21;4.15;;;2.00;;
60312;SDS011;46158;52.850;6.970;2023-08-31T05:26:47;4.45;;;1.90;;
60312;SDS011;46158;52.850;6.970;2023-08-31T05:29:14;4.35;;;2.00;;
60312;SDS011;46158;52.850;6.970;2023-08-31T05:31:39;5.32;;;1.90;;
60312;SDS011;46158;52.850;6.970;2023-08-31T05:34:05;3.75;;;2.03;;
60312;SDS011;46158;52.850;6.970;2023-08-31T05:36:31;3.83;;;1.90;;
60312;SDS011;46158;52.850;6.970;2023-08-31T05:38:56;4.13;;;1.88;;
60312;SDS011;46158;52.850;6.970;2023-08-31T05:41:22;4.55;;;1.90;;
60312;SDS011;46158;52.850;6.970;2023-08-31T05:43:48;4.75;;;1.70;;
60312;SDS011;46158;52.850;6.970;2023-08-31T05:46:13;5.45;;;2.05;;
60312;SDS011;46158;52.850;6.970;2023-08-31T05:48:39;3.40;;;1.90;;
60312;SDS011;46158;52.850;6.970;2023-08-31T05:51:05;4.68;;;2.00;;
60312;SDS011;46158;52.850;6.970;2023-08-31T05:53:30;4.30;;;1.90;;
60312;SDS011;46158;52.850;6.970;2023-08-31T05:55:56;4.60;;;2.00;;
60312;SDS011;46158;52.850;6.970;2023-08-31T05:58:32;4.85;;;1.90;;
60312;SDS011;46158;52.850;6.970;2023-08-31T06:00:58;2.97;;;2.00;;
60312;SDS011;46158;52.850;6.970;2023-08-31T06:03:24;4.32;;;1.90;;
60312;SDS011;46158;52.850;6.970;2023-08-31T06:05:50;6.07;;;2.10;;
60312;SDS011;46158;52.850;6.970;2023-08-31T06:08:16;3.47;;;1.70;;
60312;SDS011;46158;52.850;6.970;2023-08-31T06:10:41;5.82;;;2.00;;
60312;SDS011;46158;52.850;6.970;2023-08-31T06:13:07;3.63;;;1.80;;
60312;SDS011;46158;52.850;6.970;2023-08-31T06:15:33;4.85;;;1.98;;
60312;SDS011;46158;52.850;6.970;2023-08-31T06:17:58;3.75;;;1.80;;
60312;SDS011;46158;52.850;6.970;2023-08-31T06:20:24;3.05;;;1.80;;
60312;SDS011;46158;52.850;6.970;2023-08-31T06:22:50;5.85;;;1.77;;
60312;SDS011;46158;52.850;6.970;2023-08-31T06:25:15;4.78;;;1.98;;
60312;SDS011;46158;52.850;6.970;2023-08-31T06:27:43;1.90;;;1.70;;
60312;SDS011;46158;52.850;6.970;2023-08-31T06:30:10;4.93;;;1.90;;
60312;SDS011;46158;52.850;6.970;2023-08-31T06:32:47;2.72;;;1.70;;
60312;SDS011;46158;52.850;6.970;2023-08-31T06:35:13;10.95;;;2.20;;
60312;SDS011;46158;52.850;6.970;2023-08-31T06:37:42;8.27;;;2.10;;
60312;SDS011;46158;52.850;6.970;2023-08-31T06:40:08;7.03;;;2.03;;
60312;SDS011;46158;52.850;6.970;2023-08-31T06:42:38;7.18;;;2.20;;
60312;SDS011;46158;52.850;6.970;2023-08-31T06:45:04;5.57;;;1.92;;
60312;SDS011;46158;52.850;6.970;2023-08-31T06:47:30;4.18;;;1.77;;
60312;SDS011;46158;52.850;6.970;2023-08-31T06:49:56;6.68;;;1.80;;
60312;SDS011;46158;52.850;6.970;2023-08-31T06:52:25;10.35;;;2.08;;
60312;SDS011;46158;52.850;6.970;2023-08-31T06:54:52;5.25;;;2.00;;
60312;SDS011;46158;52.850;6.970;2023-08-31T06:57:22;8.02;;;1.92;;
60312;SDS011;46158;52.850;6.970;2023-08-31T06:59:51;7.13;;;2.00;;
60312;SDS011;46158;52.850;6.970;2023-08-31T07:02:17;7.93;;;1.90;;
60312;SDS011;46158;52.850;6.970;2023-08-31T07:04:44;7.65;;;2.00;;
60312;SDS011;46158;52.850;6.970;2023-08-31T07:07:10;4.93;;;1.85;;
60312;SDS011;46158;52.850;6.970;2023-08-31T07:09:39;5.38;;;2.10;;
60312;SDS011;46158;52.850;6.970;2023-08-31T07:12:08;7.43;;;1.98;;
60312;SDS011;46158;52.850;6.970;2023-08-31T07:14:34;9.98;;;1.95;;
60312;SDS011;46158;52.850;6.970;2023-08-31T07:17:00;6.47;;;1.80;;
60312;SDS011;46158;52.850;6.970;2023-08-31T07:19:26;8.27;;;1.90;;
60312;SDS011;46158;52.850;6.970;2023-08-31T07:21:52;9.27;;;2.15;;
60312;SDS011;46158;52.850;6.970;2023-08-31T07:24:19;6.55;;;1.90;;
60312;SDS011;46158;52.850;6.970;2023-08-31T07:26:46;11.23;;;2.10;;
60312;SDS011;46158;52.850;6.970;2023-08-31T07:29:12;13.02;;;1.92;;
60312;SDS011;46158;52.850;6.970;2023-08-31T07:31:38;8.98;;;2.22;;
60312;SDS011;46158;52.850;6.970;2023-08-31T07:34:04;8.35;;;2.08;;
60312;SDS011;46158;52.850;6.970;2023-08-31T07:36:30;5.97;;;2.00;;
60312;SDS011;46158;52.850;6.970;2023-08-31T07:38:56;10.23;;;2.15;;
60312;SDS011;46158;52.850;6.970;2023-08-31T07:41:21;9.55;;;2.30;;
60312;SDS011;46158;52.850;6.970;2023-08-31T07:43:47;10.05;;;2.10;;
60312;SDS011;46158;52.850;6.970;2023-08-31T07:46:14;9.70;;;2.15;;
60312;SDS011;46158;52.850;6.970;2023-08-31T07:48:40;12.15;;;2.10;;
60312;SDS011;46158;52.850;6.970;2023-08-31T07:51:06;10.05;;;2.50;;
60312;SDS011;46158;52.850;6.970;2023-08-31T07:53:33;12.00;;;2.72;;
60312;SDS011;46158;52.850;6.970;2023-08-31T07:55:58;11.63;;;2.10;;
60312;SDS011;46158;52.850;6.970;2023-08-31T07:58:24;11.20;;;2.60;;
60312;SDS011;46158;52.850;6.970;2023-08-31T08:00:54;12.40;;;2.90;;
60312;SDS011;46158;52.850;6.970;2023-08-31T08:03:21;11.68;;;2.35;;
60312;SDS011;46158;52.850;6.970;2023-08-31T08:05:48;10.82;;;2.40;;
60312;SDS011;46158;52.850;6.970;2023-08-31T08:08:14;12.50;;;2.22;;
60312;SDS011;46158;52.850;6.970;2023-08-31T08:10:39;17.17;;;2.40;;
60312;SDS011;46158;52.850;6.970;2023-08-31T08:13:05;12.00;;;2.20;;
60312;SDS011;46158;52.850;6.970;2023-08-31T08:15:31;12.73;;;2.47;;
60312;SDS011;46158;52.850;6.970;2023-08-31T08:17:57;12.30;;;2.47;;
60312;SDS011;46158;52.850;6.970;2023-08-31T08:20:23;12.82;;;2.50;;
60312;SDS011;46158;52.850;6.970;2023-08-31T08:22:49;13.45;;;2.58;;
60312;SDS011;46158;52.850;6.970;2023-08-31T08:25:19;13.25;;;2.53;;
60312;SDS011;46158;52.850;6.970;2023-08-31T08:27:44;12.73;;;2.65;;
60312;SDS011;46158;52.850;6.970;2023-08-31T08:30:11;16.08;;;2.42;;
60312;SDS011;46158;52.850;6.970;2023-08-31T08:32:40;13.68;;;2.65;;
60312;SDS011;46158;52.850;6.970;2023-08-31T08:35:07;12.82;;;2.67;;
60312;SDS011;46158;52.850;6.970;2023-08-31T08:37:33;12.48;;;2.40;;
60312;SDS011;46158;52.850;6.970;2023-08-31T08:39:59;13.90;;;2.67;;
60312;SDS011;46158;52.850;6.970;2023-08-31T08:42:25;14.68;;;2.30;;
60312;SDS011;46158;52.850;6.970;2023-08-31T08:44:54;11.55;;;2.50;;
60312;SDS011;46158;52.850;6.970;2023-08-31T08:47:21;14.50;;;2.50;;
60312;SDS011;46158;52.850;6.970;2023-08-31T08:49:47;12.95;;;2.22;;
60312;SDS011;46158;52.850;6.970;2023-08-31T08:52:14;12.93;;;2.45;;
60312;SDS011;46158;52.850;6.970;2023-08-31T08:54:40;12.85;;;2.35;;
60312;SDS011;46158;52.850;6.970;2023-08-31T08:57:06;9.18;;;1.92;;
60312;SDS011;46158;52.850;6.970;2023-08-31T08:59:31;11.15;;;2.10;;
60312;SDS011;46158;52.850;6.970;2023-08-31T09:01:57;15.57;;;2.42;;
60312;SDS011;46158;52.850;6.970;2023-08-31T09:04:23;9.43;;;2.20;;
60312;SDS011;46158;52.850;6.970;2023-08-31T09:06:52;10.73;;;2.55;;
60312;SDS011;46158;52.850;6.970;2023-08-31T09:09:17;11.95;;;2.42;;
60312;SDS011;46158;52.850;6.970;2023-08-31T09:11:44;11.55;;;2.30;;
60312;SDS011;46158;52.850;6.970;2023-08-31T09:14:17;12.60;;;2.10;;
60312;SDS011;46158;52.850;6.970;2023-08-31T09:16:44;10.38;;;2.22;;
60312;SDS011;46158;52.850;6.970;2023-08-31T09:19:18;12.20;;;2.30;;
60312;SDS011;46158;52.850;6.970;2023-08-31T09:21:45;10.10;;;2.20;;
60312;SDS011;46158;52.850;6.970;2023-08-31T09:24:12;13.40;;;2.35;;
60312;SDS011;46158;52.850;6.970;2023-08-31T09:26:39;11.52;;;2.30;;
60312;SDS011;46158;52.850;6.970;2023-08-31T09:29:05;8.48;;;2.22;;
60312;SDS011;46158;52.850;6.970;2023-08-31T09:31:32;11.48;;;2.42;;
60312;SDS011;46158;52.850;6.970;2023-08-31T09:33:57;13.35;;;2.38;;
60312;SDS011;46158;52.850;6.970;2023-08-31T09:36:23;11.57;;;2.22;;
60312;SDS011;46158;52.850;6.970;2023-08-31T09:38:49;10.77;;;2.10;;
60312;SDS011;46158;52.850;6.970;2023-08-31T09:41:15;7.40;;;2.00;;
60312;SDS011;46158;52.850;6.970;2023-08-31T09:43:43;11.15;;;2.33;;
60312;SDS011;46158;52.850;6.970;2023-08-31T09:46:09;10.48;;;2.35;;
60312;SDS011;46158;52.850;6.970;2023-08-31T09:48:36;11.02;;;2.20;;
60312;SDS011;46158;52.850;6.970;2023-08-31T09:51:04;18.15;;;2.72;;
60312;SDS011;46158;52.850;6.970;2023-08-31T09:53:31;9.20;;;2.28;;
60312;SDS011;46158;52.850;6.970;2023-08-31T09:55:58;11.88;;;2.22;;
60312;SDS011;46158;52.850;6.970;2023-08-31T09:58:24;15.93;;;2.92;;
60312;SDS011;46158;52.850;6.970;2023-08-31T10:00:51;19.33;;;3.72;;
60312;SDS011;46158;52.850;6.970;2023-08-31T10:03:17;18.90;;;3.75;;
60312;SDS011;46158;52.850;6.970;2023-08-31T10:05:45;18.10;;;4.10;;
60312;SDS011;46158;52.850;6.970;2023-08-31T10:08:12;23.20;;;4.25;;
60312;SDS011;46158;52.850;6.970;2023-08-31T10:10:39;18.05;;;3.60;;
60312;SDS011;46158;52.850;6.970;2023-08-31T10:13:05;18.02;;;3.80;;
60312;SDS011;46158;52.850;6.970;2023-08-31T10:15:32;21.85;;;4.25;;
60312;SDS011;46158;52.850;6.970;2023-08-31T10:17:59;17.63;;;3.70;;
60312;SDS011;46158;52.850;6.970;2023-08-31T10:20:25;18.50;;;3.83;;
60312;SDS011;46158;52.850;6.970;2023-08-31T10:22:54;16.50;;;3.72;;
60312;SDS011;46158;52.850;6.970;2023-08-31T10:25:22;19.73;;;3.63;;
60312;SDS011;46158;52.850;6.970;2023-08-31T10:27:48;16.35;;;3.70;;
60312;SDS011;46158;52.850;6.970;2023-08-31T10:38:13;15.32;;;3.10;;
60312;SDS011;46158;52.850;6.970;2023-08-31T10:40:39;18.55;;;3.65;;
60312;SDS011;46158;52.850;6.970;2023-08-31T10:43:14;17.17;;;3.47;;
60312;SDS011;46158;52.850;6.970;2023-08-31T10:45:44;13.50;;;3.10;;
60312;SDS011;46158;52.850;6.970;2023-08-31T10:48:10;15.70;;;3.10;;
60312;SDS011;46158;52.850;6.970;2023-08-31T10:50:42;14.98;;;3.35;;
60312;SDS011;46158;52.850;6.970;2023-08-31T10:53:10;13.93;;;3.35;;
60312;SDS011;46158;52.850;6.970;2023-08-31T10:55:52;15.30;;;3.08;;
60312;SDS011;46158;52.850;6.970;2023-08-31T10:58:18;13.85;;;3.00;;
60312;SDS011;46158;52.850;6.970;2023-08-31T11:00:51;13.13;;;2.92;;
60312;SDS011;46158;52.850;6.970;2023-08-31T11:03:18;19.05;;;3.25;;
60312;SDS011;46158;52.850;6.970;2023-08-31T11:05:50;15.10;;;2.95;;
60312;SDS011;46158;52.850;6.970;2023-08-31T11:08:21;13.48;;;3.15;;
60312;SDS011;46158;52.850;6.970;2023-08-31T11:10:50;15.35;;;3.38;;
60312;SDS011;46158;52.850;6.970;2023-08-31T11:13:18;15.15;;;3.35;;
60312;SDS011;46158;52.850;6.970;2023-08-31T11:15:47;17.63;;;2.85;;
60312;SDS011;46158;52.850;6.970;2023-08-31T11:18:13;11.15;;;2.80;;
60312;SDS011;46158;52.850;6.970;2023-08-31T11:20:42;12.27;;;2.83;;
60312;SDS011;46158;52.850;6.970;2023-08-31T11:23:09;12.10;;;2.80;;
60312;SDS011;46158;52.850;6.970;2023-08-31T11:25:35;13.77;;;2.78;;
60312;SDS011;46158;52.850;6.970;2023-08-31T11:28:01;11.85;;;2.67;;
60312;SDS011;46158;52.850;6.970;2023-08-31T11:30:32;8.90;;;2.55;;
60312;SDS011;46158;52.850;6.970;2023-08-31T11:33:05;11.75;;;2.80;;
60312;SDS011;46158;52.850;6.970;2023-08-31T11:35:34;12.45;;;2.90;;
60312;SDS011;46158;52.850;6.970;2023-08-31T11:38:01;12.40;;;2.80;;
60312;SDS011;46158;52.850;6.970;2023-08-31T11:40:28;10.30;;;2.80;;
60312;SDS011;46158;52.850;6.970;2023-08-31T11:42:54;9.43;;;2.60;;
60312;SDS011;46158;52.850;6.970;2023-08-31T11:45:20;14.50;;;2.60;;
60312;SDS011;46158;52.850;6.970;2023-08-31T11:47:48;11.52;;;2.47;;
60312;SDS011;46158;52.850;6.970;2023-08-31T11:50:14;12.85;;;2.80;;
60312;SDS011;46158;52.850;6.970;2023-08-31T11:52:42;10.00;;;2.53;;
60312;SDS011;46158;52.850;6.970;2023-08-31T11:55:11;12.80;;;2.53;;
60312;SDS011;46158;52.850;6.970;2023-08-31T11:57:38;11.50;;;2.60;;
60312;SDS011;46158;52.850;6.970;2023-08-31T12:00:04;13.35;;;2.45;;
60312;SDS011;46158;52.850;6.970;2023-08-31T12:02:37;13.02;;;2.60;;
60312;SDS011;46158;52.850;6.970;2023-08-31T12:05:02;10.80;;;2.60;;
60312;SDS011;46158;52.850;6.970;2023-08-31T12:07:30;8.30;;;2.45;;
60312;SDS011;46158;52.850;6.970;2023-08-31T12:10:01;10.85;;;2.50;;
60312;SDS011;46158;52.850;6.970;2023-08-31T12:12:28;10.00;;;2.33;;
60312;SDS011;46158;52.850;6.970;2023-08-31T12:14:57;9.68;;;2.28;;
60312;SDS011;46158;52.850;6.970;2023-08-31T12:17:26;9.90;;;2.20;;
60312;SDS011;46158;52.850;6.970;2023-08-31T12:19:51;10.13;;;2.28;;
60312;SDS011;46158;52.850;6.970;2023-08-31T12:22:17;10.13;;;2.42;;
60312;SDS011;46158;52.850;6.970;2023-08-31T12:24:43;12.57;;;2.40;;
60312;SDS011;46158;52.850;6.970;2023-08-31T12:27:08;9.88;;;2.30;;
60312;SDS011;46158;52.850;6.970;2023-08-31T12:29:35;10.93;;;2.25;;
60312;SDS011;46158;52.850;6.970;2023-08-31T12:32:01;10.07;;;2.35;;
60312;SDS011;46158;52.850;6.970;2023-08-31T12:34:27;7.95;;;2.38;;
60312;SDS011;46158;52.850;6.970;2023-08-31T12:36:52;10.55;;;2.53;;
60312;SDS011;46158;52.850;6.970;2023-08-31T12:39:18;9.35;;;2.17;;
60312;SDS011;46158;52.850;6.970;2023-08-31T12:41:44;7.93;;;2.20;;
60312;SDS011;46158;52.850;6.970;2023-08-31T12:44:10;7.13;;;2.20;;
60312;SDS011;46158;52.850;6.970;2023-08-31T12:46:36;8.90;;;2.38;;
60312;SDS011;46158;52.850;6.970;2023-08-31T12:49:02;8.02;;;2.10;;
60312;SDS011;46158;52.850;6.970;2023-08-31T12:51:31;7.85;;;2.28;;
60312;SDS011;46158;52.850;6.970;2023-08-31T12:53:57;4.65;;;2.28;;
60312;SDS011;46158;52.850;6.970;2023-08-31T12:56:23;9.43;;;2.13;;
60312;SDS011;46158;52.850;6.970;2023-08-31T12:58:49;7.47;;;2.10;;
60312;SDS011;46158;52.850;6.970;2023-08-31T13:01:16;8.20;;;2.10;;
60312;SDS011;46158;52.850;6.970;2023-08-31T13:03:43;8.70;;;2.00;;
60312;SDS011;46158;52.850;6.970;2023-08-31T13:06:08;8.68;;;2.20;;
60312;SDS011;46158;52.850;6.970;2023-08-31T13:08:34;9.75;;;2.15;;
60312;SDS011;46158;52.850;6.970;2023-08-31T13:11:00;8.05;;;2.00;;
60312;SDS011;46158;52.850;6.970;2023-08-31T13:13:25;7.57;;;1.90;;
60312;SDS011;46158;52.850;6.970;2023-08-31T13:15:51;5.50;;;1.90;;
60312;SDS011;46158;52.850;6.970;2023-08-31T13:18:17;6.65;;;2.20;;
60312;SDS011;46158;52.850;6.970;2023-08-31T13:20:49;9.63;;;2.00;;
60312;SDS011;46158;52.850;6.970;2023-08-31T13:23:19;8.73;;;1.90;;
60312;SDS011;46158;52.850;6.970;2023-08-31T13:25:45;7.57;;;2.10;;
60312;SDS011;46158;52.850;6.970;2023-08-31T13:28:11;7.90;;;2.00;;
60312;SDS011;46158;52.850;6.970;2023-08-31T13:30:38;9.35;;;2.40;;
60312;SDS011;46158;52.850;6.970;2023-08-31T13:33:04;12.23;;;2.00;;
60312;SDS011;46158;52.850;6.970;2023-08-31T13:35:30;8.88;;;2.17;;
60312;SDS011;46158;52.850;6.970;2023-08-31T13:37:56;8.23;;;2.10;;
60312;SDS011;46158;52.850;6.970;2023-08-31T13:40:21;7.97;;;2.05;;
60312;SDS011;46158;52.850;6.970;2023-08-31T13:42:54;8.43;;;2.10;;
60312;SDS011;46158;52.850;6.970;2023-08-31T13:45:24;8.43;;;2.10;;
60312;SDS011;46158;52.850;6.970;2023-08-31T13:47:50;6.53;;;1.80;;
60312;SDS011;46158;52.850;6.970;2023-08-31T13:50:16;10.98;;;2.20;;
60312;SDS011;46158;52.850;6.970;2023-08-31T13:52:42;7.60;;;1.83;;
60312;SDS011;46158;52.850;6.970;2023-08-31T13:55:08;6.20;;;2.00;;
60312;SDS011;46158;52.850;6.970;2023-08-31T13:57:33;8.55;;;2.05;;
60312;SDS011;46158;52.850;6.970;2023-08-31T14:00:00;6.85;;;1.77;;
60312;SDS011;46158;52.850;6.970;2023-08-31T14:02:26;8.73;;;2.10;;
60312;SDS011;46158;52.850;6.970;2023-08-31T14:04:52;7.93;;;2.20;;
60312;SDS011;46158;52.850;6.970;2023-08-31T14:07:19;9.55;;;2.10;;
60312;SDS011;46158;52.850;6.970;2023-08-31T14:09:45;8.40;;;2.15;;
60312;SDS011;46158;52.850;6.970;2023-08-31T14:12:10;9.57;;;2.20;;
60312;SDS011;46158;52.850;6.970;2023-08-31T14:14:36;10.55;;;2.25;;
60312;SDS011;46158;52.850;6.970;2023-08-31T14:17:02;4.57;;;1.80;;
60312;SDS011;46158;52.850;6.970;2023-08-31T14:19:28;7.90;;;2.00;;
60312;SDS011;46158;52.850;6.970;2023-08-31T14:21:54;12.07;;;2.10;;
60312;SDS011;46158;52.850;6.970;2023-08-31T14:24:20;8.95;;;1.92;;
60312;SDS011;46158;52.850;6.970;2023-08-31T14:26:46;17.70;;;2.65;;
60312;SDS011;46158;52.850;6.970;2023-08-31T14:29:12;7.18;;;2.03;;
60312;SDS011;46158;52.850;6.970;2023-08-31T14:31:37;10.15;;;2.22;;
60312;SDS011;46158;52.850;6.970;2023-08-31T14:34:03;11.88;;;2.15;;
60312;SDS011;46158;52.850;6.970;2023-08-31T14:36:29;8.65;;;2.08;;
60312;SDS011;46158;52.850;6.970;2023-08-31T14:38:55;13.68;;;2.13;;
60312;SDS011;46158;52.850;6.970;2023-08-31T14:41:20;11.75;;;2.00;;
60312;SDS011;46158;52.850;6.970;2023-08-31T14:43:46;8.18;;;1.90;;
60312;SDS011;46158;52.850;6.970;2023-08-31T14:46:12;7.03;;;2.05;;
60312;SDS011;46158;52.850;6.970;2023-08-31T14:48:38;13.00;;;2.10;;
60312;SDS011;46158;52.850;6.970;2023-08-31T14:51:03;11.98;;;2.00;;
60312;SDS011;46158;52.850;6.970;2023-08-31T14:53:29;11.18;;;2.20;;
60312;SDS011;46158;52.850;6.970;2023-08-31T14:55:55;9.60;;;2.22;;
60312;SDS011;46158;52.850;6.970;2023-08-31T14:58:20;7.38;;;1.83;;
60312;SDS011;46158;52.850;6.970;2023-08-31T15:00:46;7.68;;;1.95;;
60312;SDS011;46158;52.850;6.970;2023-08-31T15:03:12;5.40;;;1.60;;